UA1794 KIAH-KMEM
Flight info
| Callsign | UA1794 |
|---|---|
| Flight time | 1h 10m |
| Altitude | 37000 |
| Route | LURIC8 LURIC ELD HOBRK4 |
| Aircraft | A320/M-SDE3FGHIRWY/LB1 |
Departure
| Time | 2026-05-04 03:45 |
|---|---|
| Airport | George Bush Intercontinental Airport (KIAH) |
Arrival
| Time | 2026-05-04 04:56 |
|---|---|
| Airport | Memphis International Airport (KMEM) |
| Time | Latitude | Longitude | Altitude | Speed | Heading |
|---|---|---|---|---|---|
| 2026-05-04 02:58 | 29.98528 | -95.33397 | 107 ft | 0 kts | 360° |
| 2026-05-04 03:30 | 29.98507 | -95.33396 | 107 ft | 4 kts | 357° |
| 2026-05-04 03:30 | 29.98480 | -95.33394 | 106 ft | 4 kts | 354° |
| 2026-05-04 03:30 | 29.98453 | -95.33391 | 106 ft | 4 kts | 352° |
| 2026-05-04 03:30 | 29.98426 | -95.33386 | 107 ft | 4 kts | 349° |
| 2026-05-04 03:31 | 29.98399 | -95.33379 | 107 ft | 4 kts | 346° |
| 2026-05-04 03:31 | 29.98373 | -95.33372 | 107 ft | 4 kts | 343° |
| 2026-05-04 03:31 | 29.98347 | -95.33362 | 107 ft | 4 kts | 339° |
| 2026-05-04 03:31 | 29.98323 | -95.33349 | 107 ft | 4 kts | 328° |
| 2026-05-04 03:32 | 29.98303 | -95.33331 | 107 ft | 4 kts | 292° |
| 2026-05-04 03:32 | 29.98300 | -95.33322 | 107 ft | 0 kts | 270° |
| 2026-05-04 03:37 | 29.98300 | -95.33338 | 105 ft | 4 kts | 270° |
| 2026-05-04 03:37 | 29.98300 | -95.33359 | 107 ft | 3 kts | 268° |
| 2026-05-04 03:37 | 29.98287 | -95.33390 | 107 ft | 5 kts | 226° |
| 2026-05-04 03:38 | 29.98248 | -95.33405 | 106 ft | 7 kts | 207° |
| 2026-05-04 03:38 | 29.98228 | -95.33461 | 107 ft | 9 kts | 264° |
| 2026-05-04 03:38 | 29.98227 | -95.33540 | 107 ft | 11 kts | 270° |
| 2026-05-04 03:38 | 29.98229 | -95.33636 | 107 ft | 13 kts | 274° |
| 2026-05-04 03:39 | 29.98241 | -95.33748 | 105 ft | 15 kts | 277° |
| 2026-05-04 03:39 | 29.98244 | -95.33879 | 107 ft | 18 kts | 269° |
| 2026-05-04 03:39 | 29.98258 | -95.34026 | 106 ft | 20 kts | 289° |
| 2026-05-04 03:39 | 29.98303 | -95.34153 | 107 ft | 17 kts | 272° |
| 2026-05-04 03:40 | 29.98303 | -95.34297 | 107 ft | 19 kts | 270° |
| 2026-05-04 03:40 | 29.98275 | -95.34439 | 107 ft | 17 kts | 239° |
| 2026-05-04 03:40 | 29.98257 | -95.34572 | 107 ft | 18 kts | 270° |
| 2026-05-04 03:40 | 29.98257 | -95.34726 | 105 ft | 20 kts | 269° |
| 2026-05-04 03:41 | 29.98257 | -95.34893 | 106 ft | 22 kts | 270° |
| 2026-05-04 03:41 | 29.98256 | -95.35042 | 105 ft | 15 kts | 267° |
| 2026-05-04 03:41 | 29.98224 | -95.35137 | 106 ft | 12 kts | 241° |
| 2026-05-04 03:41 | 29.98225 | -95.35225 | 107 ft | 13 kts | 317° |
| 2026-05-04 03:42 | 29.98309 | -95.35278 | 107 ft | 15 kts | 332° |
| 2026-05-04 03:42 | 29.98407 | -95.35339 | 106 ft | 17 kts | 332° |
| 2026-05-04 03:42 | 29.98521 | -95.35409 | 105 ft | 20 kts | 332° |
| 2026-05-04 03:42 | 29.98649 | -95.35487 | 107 ft | 22 kts | 332° |
| 2026-05-04 03:43 | 29.98763 | -95.35560 | 105 ft | 14 kts | 317° |
| 2026-05-04 03:43 | 29.98754 | -95.35657 | 107 ft | 14 kts | 240° |
| 2026-05-04 03:43 | 29.98686 | -95.35721 | 107 ft | 14 kts | 168° |
| 2026-05-04 03:43 | 29.98663 | -95.35708 | 108 ft | 1 kts | 150° |
| 2026-05-04 03:44 | 29.98640 | -95.35694 | 108 ft | 10 kts | 154° |
| 2026-05-04 03:44 | 29.98478 | -95.35597 | 107 ft | 55 kts | 152° |
| 2026-05-04 03:44 | 29.97945 | -95.35270 | 108 ft | 115 kts | 152° |
| 2026-05-04 03:44 | 29.97105 | -95.34760 | 203 ft | 147 kts | 152° |
| 2026-05-04 03:45 | 29.96193 | -95.34197 | 622 ft | 154 kts | 152° |
| 2026-05-04 03:45 | 29.95462 | -95.33310 | 1106 ft | 160 kts | 112° |
| 2026-05-04 03:45 | 29.95445 | -95.31960 | 1331 ft | 185 kts | 70° |
| 2026-05-04 03:45 | 29.96301 | -95.30756 | 1571 ft | 210 kts | 33° |
| 2026-05-04 03:46 | 29.97686 | -95.29967 | 1823 ft | 235 kts | 23° |
| 2026-05-04 03:46 | 29.99264 | -95.29246 | 2222 ft | 258 kts | 20° |
| 2026-05-04 03:46 | 30.01040 | -95.28578 | 2889 ft | 273 kts | 18° |
| 2026-05-04 03:46 | 30.02833 | -95.27959 | 3120 ft | 272 kts | 17° |
| 2026-05-04 03:47 | 30.04630 | -95.27234 | 3373 ft | 272 kts | 30° |
| 2026-05-04 03:47 | 30.06230 | -95.26073 | 3623 ft | 272 kts | 34° |
| 2026-05-04 03:47 | 30.07819 | -95.24887 | 3877 ft | 272 kts | 33° |
| 2026-05-04 03:47 | 30.09411 | -95.23702 | 3985 ft | 273 kts | 33° |
| 2026-05-04 03:48 | 30.11001 | -95.22515 | 4011 ft | 271 kts | 33° |
| 2026-05-04 03:48 | 30.12583 | -95.21330 | 4017 ft | 271 kts | 33° |
| 2026-05-04 03:48 | 30.14165 | -95.20146 | 4019 ft | 272 kts | 33° |
| 2026-05-04 03:48 | 30.15748 | -95.18961 | 4020 ft | 271 kts | 33° |
| 2026-05-04 03:49 | 30.17343 | -95.17767 | 4304 ft | 277 kts | 33° |
| 2026-05-04 03:49 | 30.18952 | -95.16564 | 5308 ft | 275 kts | 33° |
| 2026-05-04 03:49 | 30.20562 | -95.15357 | 6264 ft | 276 kts | 33° |
| 2026-05-04 03:49 | 30.22180 | -95.14144 | 7144 ft | 279 kts | 33° |
| 2026-05-04 03:50 | 30.23813 | -95.12919 | 7998 ft | 281 kts | 33° |
| 2026-05-04 03:50 | 30.25465 | -95.11677 | 8818 ft | 284 kts | 33° |
| 2026-05-04 03:50 | 30.27135 | -95.10421 | 9611 ft | 288 kts | 33° |
| 2026-05-04 03:50 | 30.28811 | -95.09161 | 10253 ft | 297 kts | 32° |
| 2026-05-04 03:51 | 30.30613 | -95.07810 | 10472 ft | 320 kts | 32° |
| 2026-05-04 03:51 | 30.32549 | -95.06358 | 10647 ft | 343 kts | 32° |
| 2026-05-04 03:51 | 30.34588 | -95.04830 | 11116 ft | 353 kts | 32° |
| 2026-05-04 03:51 | 30.36673 | -95.03265 | 11713 ft | 359 kts | 32° |
| 2026-05-04 03:52 | 30.38782 | -95.01677 | 12361 ft | 364 kts | 32° |
| 2026-05-04 03:52 | 30.40925 | -95.00060 | 12998 ft | 368 kts | 31° |
| 2026-05-04 03:52 | 30.43079 | -94.98435 | 13629 ft | 371 kts | 31° |
| 2026-05-04 03:52 | 30.45252 | -94.96795 | 14244 ft | 375 kts | 31° |
| 2026-05-04 03:53 | 30.47450 | -94.95140 | 14855 ft | 378 kts | 31° |
| 2026-05-04 03:53 | 30.49664 | -94.93474 | 15446 ft | 381 kts | 30° |
| 2026-05-04 03:53 | 30.51899 | -94.91788 | 16022 ft | 384 kts | 30° |
| 2026-05-04 03:53 | 30.54148 | -94.90090 | 16591 ft | 387 kts | 30° |
| 2026-05-04 03:54 | 30.56416 | -94.88373 | 17172 ft | 390 kts | 30° |
| 2026-05-04 03:54 | 30.58691 | -94.86635 | 17744 ft | 393 kts | 30° |
| 2026-05-04 03:54 | 30.60981 | -94.84875 | 18321 ft | 396 kts | 30° |
| 2026-05-04 03:54 | 30.63286 | -94.83096 | 18891 ft | 400 kts | 29° |
| 2026-05-04 03:55 | 30.65614 | -94.81296 | 19450 ft | 404 kts | 29° |
| 2026-05-04 03:55 | 30.67961 | -94.79483 | 20013 ft | 407 kts | 28° |
| 2026-05-04 03:55 | 30.70332 | -94.77656 | 20560 ft | 411 kts | 28° |
| 2026-05-04 03:55 | 30.72697 | -94.75838 | 21057 ft | 414 kts | 28° |
| 2026-05-04 03:56 | 30.75143 | -94.73956 | 21556 ft | 418 kts | 28° |
| 2026-05-04 03:56 | 30.77545 | -94.72103 | 22003 ft | 421 kts | 28° |
| 2026-05-04 03:56 | 30.79994 | -94.70209 | 22442 ft | 425 kts | 28° |
| 2026-05-04 03:56 | 30.82462 | -94.68304 | 22880 ft | 427 kts | 28° |
| 2026-05-04 03:57 | 30.84957 | -94.66379 | 23306 ft | 431 kts | 28° |
| 2026-05-04 03:57 | 30.87470 | -94.64437 | 23723 ft | 434 kts | 28° |
| 2026-05-04 03:57 | 30.89994 | -94.62484 | 24117 ft | 437 kts | 27° |
| 2026-05-04 03:57 | 30.92535 | -94.60517 | 24506 ft | 439 kts | 27° |
| 2026-05-04 03:58 | 30.97650 | -94.56557 | 25284 ft | 443 kts | 27° |
| 2026-05-04 03:58 | 31.00223 | -94.54563 | 25667 ft | 445 kts | 27° |
| 2026-05-04 03:58 | 31.02815 | -94.52549 | 26042 ft | 447 kts | 27° |
| 2026-05-04 03:59 | 31.05405 | -94.50537 | 26424 ft | 449 kts | 26° |
| 2026-05-04 03:59 | 31.08009 | -94.48512 | 26782 ft | 450 kts | 26° |
| 2026-05-04 03:59 | 31.10620 | -94.46482 | 27152 ft | 452 kts | 26° |
| 2026-05-04 03:59 | 31.13241 | -94.44444 | 27502 ft | 454 kts | 26° |
| 2026-05-04 04:00 | 31.15877 | -94.42394 | 27838 ft | 456 kts | 26° |
| 2026-05-04 04:00 | 31.18521 | -94.40337 | 28185 ft | 458 kts | 25° |
| 2026-05-04 04:00 | 31.21178 | -94.38273 | 28514 ft | 459 kts | 25° |
| 2026-05-04 04:00 | 31.23836 | -94.36205 | 28921 ft | 459 kts | 25° |
| 2026-05-04 04:01 | 31.26483 | -94.34140 | 29374 ft | 457 kts | 25° |
| 2026-05-04 04:01 | 31.29115 | -94.32078 | 29832 ft | 455 kts | 25° |
| 2026-05-04 04:01 | 31.31735 | -94.30023 | 30291 ft | 453 kts | 24° |
| 2026-05-04 04:01 | 31.34347 | -94.27976 | 30706 ft | 452 kts | 24° |
| 2026-05-04 04:02 | 31.36964 | -94.25931 | 31112 ft | 451 kts | 24° |
| 2026-05-04 04:02 | 31.39538 | -94.23917 | 31517 ft | 450 kts | 23° |
| 2026-05-04 04:02 | 31.42145 | -94.21873 | 31896 ft | 450 kts | 23° |
| 2026-05-04 04:02 | 31.44745 | -94.19833 | 32299 ft | 450 kts | 22° |
| 2026-05-04 04:03 | 31.47340 | -94.17797 | 32691 ft | 449 kts | 22° |
| 2026-05-04 04:03 | 31.49937 | -94.15756 | 33080 ft | 449 kts | 22° |
| 2026-05-04 04:03 | 31.52523 | -94.13725 | 33498 ft | 447 kts | 22° |
| 2026-05-04 04:03 | 31.55107 | -94.11693 | 33884 ft | 446 kts | 21° |
| 2026-05-04 04:04 | 31.57686 | -94.09665 | 34272 ft | 445 kts | 21° |
| 2026-05-04 04:04 | 31.60253 | -94.07647 | 34647 ft | 444 kts | 21° |
| 2026-05-04 04:04 | 31.62820 | -94.05626 | 35003 ft | 443 kts | 21° |
| 2026-05-04 04:04 | 31.65377 | -94.03611 | 35319 ft | 443 kts | 21° |
| 2026-05-04 04:05 | 31.67933 | -94.01592 | 35627 ft | 442 kts | 21° |
| 2026-05-04 04:05 | 31.70452 | -93.99603 | 35914 ft | 442 kts | 21° |
| 2026-05-04 04:05 | 31.73001 | -93.97589 | 36215 ft | 441 kts | 21° |
| 2026-05-04 04:05 | 31.75546 | -93.95576 | 36497 ft | 441 kts | 21° |
| 2026-05-04 04:06 | 31.78096 | -93.93559 | 36756 ft | 441 kts | 21° |
| 2026-05-04 04:06 | 31.80638 | -93.91547 | 37019 ft | 441 kts | 21° |
| 2026-05-04 04:06 | 31.83182 | -93.89533 | 37126 ft | 442 kts | 21° |
| 2026-05-04 04:06 | 31.85751 | -93.87503 | 37148 ft | 447 kts | 21° |
| 2026-05-04 04:07 | 31.90916 | -93.83407 | 37157 ft | 448 kts | 21° |
| 2026-05-04 04:07 | 31.96067 | -93.79291 | 37153 ft | 447 kts | 21° |
| 2026-05-04 04:08 | 32.01207 | -93.75192 | 37168 ft | 445 kts | 21° |
| 2026-05-04 04:08 | 32.06333 | -93.71116 | 37161 ft | 443 kts | 21° |
| 2026-05-04 04:09 | 32.11435 | -93.67037 | 37178 ft | 443 kts | 21° |
| 2026-05-04 04:09 | 32.16543 | -93.62964 | 37175 ft | 443 kts | 21° |
| 2026-05-04 04:10 | 32.21656 | -93.58876 | 37173 ft | 444 kts | 21° |
| 2026-05-04 04:10 | 32.25902 | -93.55465 | 37159 ft | 444 kts | 22° |
| 2026-05-04 04:11 | 32.31842 | -93.50687 | 37156 ft | 444 kts | 22° |
| 2026-05-04 04:11 | 32.36130 | -93.47243 | 37154 ft | 444 kts | 22° |
| 2026-05-04 04:12 | 32.41241 | -93.43147 | 37146 ft | 444 kts | 22° |
| 2026-05-04 04:12 | 32.46319 | -93.39051 | 37143 ft | 445 kts | 22° |
| 2026-05-04 04:13 | 32.51430 | -93.34917 | 37139 ft | 445 kts | 22° |
| 2026-05-04 04:13 | 32.56543 | -93.30791 | 37138 ft | 445 kts | 22° |
| 2026-05-04 04:14 | 32.61648 | -93.26660 | 37141 ft | 444 kts | 22° |
| 2026-05-04 04:14 | 32.66757 | -93.22528 | 37144 ft | 444 kts | 22° |
| 2026-05-04 04:15 | 32.71868 | -93.18384 | 37149 ft | 445 kts | 23° |
| 2026-05-04 04:15 | 32.76972 | -93.14233 | 37145 ft | 444 kts | 23° |
| 2026-05-04 04:16 | 32.82070 | -93.10079 | 37142 ft | 444 kts | 23° |
| 2026-05-04 04:16 | 32.87163 | -93.05924 | 37139 ft | 444 kts | 23° |
| 2026-05-04 04:17 | 32.92254 | -93.01764 | 37136 ft | 443 kts | 23° |
| 2026-05-04 04:17 | 32.97313 | -92.97639 | 37130 ft | 443 kts | 23° |
| 2026-05-04 04:18 | 33.02398 | -92.93483 | 37131 ft | 443 kts | 24° |
| 2026-05-04 04:18 | 33.07480 | -92.89316 | 37130 ft | 444 kts | 24° |
| 2026-05-04 04:19 | 33.12564 | -92.85141 | 37129 ft | 443 kts | 24° |
| 2026-05-04 04:19 | 33.17643 | -92.80962 | 37126 ft | 443 kts | 24° |
| 2026-05-04 04:20 | 33.22718 | -92.76783 | 37126 ft | 444 kts | 25° |
| 2026-05-04 04:20 | 33.25142 | -92.74416 | 37123 ft | 457 kts | 34° |
| 2026-05-04 04:20 | 33.27279 | -92.71541 | 37120 ft | 470 kts | 44° |
| 2026-05-04 04:21 | 33.31035 | -92.65092 | 37120 ft | 473 kts | 46° |
| 2026-05-04 04:21 | 33.34791 | -92.58619 | 37119 ft | 473 kts | 46° |
| 2026-05-04 04:22 | 33.38545 | -92.52147 | 37119 ft | 473 kts | 46° |
| 2026-05-04 04:22 | 33.42294 | -92.45685 | 37117 ft | 473 kts | 46° |
| 2026-05-04 04:23 | 33.46015 | -92.39259 | 37121 ft | 473 kts | 47° |
| 2026-05-04 04:23 | 33.49750 | -92.32797 | 37122 ft | 472 kts | 47° |
| 2026-05-04 04:24 | 33.53488 | -92.26314 | 37123 ft | 472 kts | 47° |
| 2026-05-04 04:24 | 33.57220 | -92.19823 | 37126 ft | 472 kts | 47° |
| 2026-05-04 04:25 | 33.60936 | -92.13351 | 37126 ft | 471 kts | 47° |
| 2026-05-04 04:25 | 33.64648 | -92.06867 | 37127 ft | 471 kts | 47° |
| 2026-05-04 04:26 | 33.68344 | -92.00387 | 37119 ft | 470 kts | 47° |
| 2026-05-04 04:26 | 33.72046 | -91.93909 | 37119 ft | 470 kts | 47° |
| 2026-05-04 04:27 | 33.75727 | -91.87475 | 37116 ft | 470 kts | 47° |
| 2026-05-04 04:27 | 33.79424 | -91.80995 | 37119 ft | 470 kts | 48° |
| 2026-05-04 04:28 | 33.83107 | -91.74507 | 37113 ft | 469 kts | 48° |
| 2026-05-04 04:28 | 33.86785 | -91.68002 | 37114 ft | 470 kts | 48° |
| 2026-05-04 04:29 | 33.90458 | -91.61510 | 37012 ft | 470 kts | 48° |
| 2026-05-04 04:29 | 33.92310 | -91.58244 | 36763 ft | 472 kts | 47° |
| 2026-05-04 04:29 | 33.94323 | -91.55194 | 36442 ft | 461 kts | 41° |
| 2026-05-04 04:30 | 33.96441 | -91.52276 | 35746 ft | 463 kts | 41° |
| 2026-05-04 04:30 | 33.98568 | -91.49358 | 34981 ft | 465 kts | 41° |
| 2026-05-04 04:30 | 34.00706 | -91.46426 | 34189 ft | 467 kts | 42° |
| 2026-05-04 04:30 | 34.02833 | -91.43507 | 33363 ft | 469 kts | 42° |
| 2026-05-04 04:31 | 34.04990 | -91.40539 | 32492 ft | 472 kts | 43° |
| 2026-05-04 04:31 | 34.07162 | -91.37544 | 31566 ft | 475 kts | 43° |
| 2026-05-04 04:31 | 34.09338 | -91.34540 | 30740 ft | 476 kts | 43° |
| 2026-05-04 04:31 | 34.11512 | -91.31532 | 30056 ft | 473 kts | 43° |
| 2026-05-04 04:32 | 34.13656 | -91.28559 | 29463 ft | 468 kts | 43° |
| 2026-05-04 04:32 | 34.15784 | -91.25603 | 28855 ft | 464 kts | 43° |
| 2026-05-04 04:32 | 34.17889 | -91.22679 | 28208 ft | 457 kts | 43° |
| 2026-05-04 04:32 | 34.19968 | -91.19794 | 27310 ft | 456 kts | 44° |
| 2026-05-04 04:33 | 34.22040 | -91.16930 | 26760 ft | 450 kts | 44° |
| 2026-05-04 04:33 | 34.24097 | -91.14094 | 26219 ft | 445 kts | 44° |
| 2026-05-04 04:33 | 34.26130 | -91.11289 | 25527 ft | 444 kts | 44° |
| 2026-05-04 04:33 | 34.28137 | -91.08506 | 25059 ft | 436 kts | 44° |
| 2026-05-04 04:34 | 34.30132 | -91.05735 | 24443 ft | 433 kts | 44° |
| 2026-05-04 04:34 | 34.32098 | -91.02999 | 23817 ft | 431 kts | 45° |
| 2026-05-04 04:34 | 34.34044 | -91.00285 | 23351 ft | 424 kts | 45° |
| 2026-05-04 04:34 | 34.35978 | -90.97591 | 22797 ft | 421 kts | 45° |
| 2026-05-04 04:35 | 34.37881 | -90.94939 | 22363 ft | 415 kts | 45° |
| 2026-05-04 04:35 | 34.39771 | -90.92306 | 21830 ft | 413 kts | 45° |
| 2026-05-04 04:35 | 34.41649 | -90.89689 | 21313 ft | 408 kts | 45° |
| 2026-05-04 04:35 | 34.43461 | -90.87156 | 20634 ft | 397 kts | 45° |
| 2026-05-04 04:36 | 34.45257 | -90.84642 | 20197 ft | 393 kts | 45° |
| 2026-05-04 04:36 | 34.47039 | -90.82152 | 19746 ft | 389 kts | 45° |
| 2026-05-04 04:36 | 34.48803 | -90.79690 | 19400 ft | 383 kts | 45° |
| 2026-05-04 04:36 | 34.50531 | -90.77273 | 19138 ft | 378 kts | 45° |
| 2026-05-04 04:37 | 34.55540 | -90.69983 | 17891 ft | 371 kts | 46° |
| 2026-05-04 04:37 | 34.57171 | -90.67572 | 17418 ft | 368 kts | 46° |
| 2026-05-04 04:38 | 34.58791 | -90.65180 | 16939 ft | 366 kts | 47° |
| 2026-05-04 04:38 | 34.60406 | -90.62795 | 16409 ft | 365 kts | 47° |
| 2026-05-04 04:38 | 34.62015 | -90.60428 | 15941 ft | 362 kts | 47° |
| 2026-05-04 04:38 | 34.63577 | -90.58070 | 15614 ft | 357 kts | 48° |
| 2026-05-04 04:39 | 34.65104 | -90.55699 | 15272 ft | 355 kts | 49° |
| 2026-05-04 04:39 | 34.66605 | -90.53330 | 14924 ft | 353 kts | 49° |
| 2026-05-04 04:39 | 34.68099 | -90.50964 | 14581 ft | 352 kts | 50° |
| 2026-05-04 04:39 | 34.69583 | -90.48616 | 14241 ft | 349 kts | 49° |
| 2026-05-04 04:40 | 34.71064 | -90.46287 | 13907 ft | 347 kts | 49° |
| 2026-05-04 04:40 | 34.72518 | -90.44008 | 13578 ft | 345 kts | 49° |
| 2026-05-04 04:40 | 34.73994 | -90.41699 | 13246 ft | 344 kts | 50° |
| 2026-05-04 04:40 | 34.75459 | -90.39408 | 12911 ft | 342 kts | 50° |
| 2026-05-04 04:41 | 34.76916 | -90.37126 | 12585 ft | 340 kts | 50° |
| 2026-05-04 04:41 | 34.78357 | -90.34869 | 12334 ft | 333 kts | 50° |
| 2026-05-04 04:41 | 34.79747 | -90.32681 | 12208 ft | 321 kts | 50° |
| 2026-05-04 04:41 | 34.81090 | -90.30567 | 12080 ft | 311 kts | 50° |
| 2026-05-04 04:42 | 34.82398 | -90.28509 | 11846 ft | 305 kts | 50° |
| 2026-05-04 04:42 | 34.83684 | -90.26487 | 11747 ft | 301 kts | 50° |
| 2026-05-04 04:42 | 34.84970 | -90.24468 | 11677 ft | 302 kts | 50° |
| 2026-05-04 04:42 | 34.86255 | -90.22447 | 11609 ft | 302 kts | 50° |
| 2026-05-04 04:43 | 34.87542 | -90.20419 | 11522 ft | 302 kts | 50° |
| 2026-05-04 04:43 | 34.88824 | -90.18397 | 11409 ft | 302 kts | 50° |
| 2026-05-04 04:43 | 34.90109 | -90.16367 | 11291 ft | 302 kts | 50° |
| 2026-05-04 04:43 | 34.91372 | -90.14368 | 11175 ft | 299 kts | 50° |
| 2026-05-04 04:44 | 34.92781 | -90.12604 | 11066 ft | 281 kts | 33° |
| 2026-05-04 04:44 | 34.94449 | -90.11526 | 10897 ft | 267 kts | 16° |
| 2026-05-04 04:44 | 34.96266 | -90.11117 | 10512 ft | 265 kts | 358° |
| 2026-05-04 04:44 | 34.98109 | -90.11099 | 10161 ft | 263 kts | 358° |
| 2026-05-04 04:45 | 34.99907 | -90.11068 | 9825 ft | 254 kts | 358° |
| 2026-05-04 04:45 | 35.01638 | -90.11035 | 9504 ft | 245 kts | 357° |
| 2026-05-04 04:45 | 35.03316 | -90.11003 | 9213 ft | 239 kts | 357° |
| 2026-05-04 04:47 | 35.13139 | -90.11363 | 7576 ft | 227 kts | 348° |
| 2026-05-04 04:47 | 35.14688 | -90.11601 | 7375 ft | 222 kts | 348° |
| 2026-05-04 04:47 | 35.16205 | -90.11831 | 7172 ft | 217 kts | 348° |
| 2026-05-04 04:47 | 35.17669 | -90.12054 | 6977 ft | 213 kts | 348° |
| 2026-05-04 04:48 | 35.19132 | -90.12280 | 6778 ft | 211 kts | 347° |
| 2026-05-04 04:49 | 35.24895 | -90.12165 | 6005 ft | 223 kts | 33° |
| 2026-05-04 04:49 | 35.25879 | -90.10688 | 5788 ft | 229 kts | 66° |
| 2026-05-04 04:49 | 35.26158 | -90.08777 | 5582 ft | 230 kts | 90° |
| 2026-05-04 04:49 | 35.26181 | -90.06825 | 5374 ft | 226 kts | 90° |
| 2026-05-04 04:50 | 35.26202 | -90.04921 | 5128 ft | 222 kts | 90° |
| 2026-05-04 04:50 | 35.26225 | -90.03055 | 4901 ft | 217 kts | 90° |
| 2026-05-04 04:50 | 35.26248 | -90.01215 | 4702 ft | 216 kts | 92° |
| 2026-05-04 04:50 | 35.25914 | -89.99474 | 4498 ft | 208 kts | 124° |
| 2026-05-04 04:51 | 35.24968 | -89.98225 | 4285 ft | 197 kts | 153° |
| 2026-05-04 04:51 | 35.23721 | -89.97702 | 4011 ft | 186 kts | 181° |
| 2026-05-04 04:51 | 35.22442 | -89.97673 | 3768 ft | 183 kts | 184° |
| 2026-05-04 04:51 | 35.21174 | -89.97649 | 3507 ft | 182 kts | 184° |
| 2026-05-04 04:52 | 35.19918 | -89.97622 | 3260 ft | 179 kts | 183° |
| 2026-05-04 04:52 | 35.18668 | -89.97594 | 3017 ft | 178 kts | 183° |
| 2026-05-04 04:52 | 35.17432 | -89.97566 | 2774 ft | 178 kts | 182° |
| 2026-05-04 04:52 | 35.16195 | -89.97539 | 2521 ft | 177 kts | 181° |
| 2026-05-04 04:53 | 35.14987 | -89.97512 | 2297 ft | 173 kts | 181° |
| 2026-05-04 04:53 | 35.13820 | -89.97483 | 2057 ft | 163 kts | 180° |
| 2026-05-04 04:53 | 35.12722 | -89.97456 | 1834 ft | 152 kts | 180° |
| 2026-05-04 04:53 | 35.11702 | -89.97434 | 1641 ft | 144 kts | 180° |
| 2026-05-04 04:54 | 35.10707 | -89.97422 | 1406 ft | 142 kts | 180° |
| 2026-05-04 04:54 | 35.09725 | -89.97415 | 1247 ft | 141 kts | 179° |
| 2026-05-04 04:54 | 35.08745 | -89.97384 | 1095 ft | 140 kts | 178° |
| 2026-05-04 04:54 | 35.07767 | -89.97347 | 923 ft | 141 kts | 179° |
| 2026-05-04 04:55 | 35.06786 | -89.97331 | 731 ft | 141 kts | 180° |
| 2026-05-04 04:55 | 35.05806 | -89.97315 | 540 ft | 141 kts | 179° |
| 2026-05-04 04:55 | 35.04827 | -89.97297 | 362 ft | 141 kts | 179° |
| 2026-05-04 04:55 | 35.03954 | -89.97277 | 326 ft | 102 kts | 179° |
| 2026-05-04 04:56 | 35.03425 | -89.97268 | 328 ft | 46 kts | 182° |
| 2026-05-04 04:56 | 35.03201 | -89.97398 | 327 ft | 25 kts | 239° |
| 2026-05-04 04:56 | 35.03160 | -89.97615 | 324 ft | 25 kts | 269° |
| 2026-05-04 04:56 | 35.03194 | -89.97715 | 324 ft | 11 kts | 338° |
| 2026-05-04 04:57 | 35.03274 | -89.97722 | 324 ft | 13 kts | 358° |
| 2026-05-04 04:57 | 35.03370 | -89.97725 | 328 ft | 15 kts | 358° |
| 2026-05-04 04:57 | 35.03484 | -89.97727 | 326 ft | 18 kts | 359° |
| 2026-05-04 04:57 | 35.03615 | -89.97730 | 325 ft | 20 kts | 359° |
| 2026-05-04 04:58 | 35.03717 | -89.97732 | 328 ft | 0 kts | 359° |
| 2026-05-04 04:58 | 35.03718 | -89.97732 | 328 ft | 1 kts | 359° |
| 2026-05-04 04:58 | 35.03740 | -89.97732 | 328 ft | 4 kts | 359° |
| 2026-05-04 04:59 | 35.03776 | -89.97737 | 325 ft | 6 kts | 343° |
| 2026-05-04 04:59 | 35.03795 | -89.97781 | 325 ft | 6 kts | 280° |
| 2026-05-04 04:59 | 35.03822 | -89.97827 | 329 ft | 8 kts | 333° |
| 2026-05-04 04:59 | 35.03879 | -89.97845 | 330 ft | 9 kts | 327° |
| 2026-05-04 05:00 | 35.03888 | -89.97924 | 329 ft | 11 kts | 269° |
| 2026-05-04 05:00 | 35.03893 | -89.98017 | 330 ft | 11 kts | 298° |
| 2026-05-04 05:00 | 35.04023 | -89.98095 | 330 ft | 12 kts | 314° |
| 2026-05-04 05:01 | 35.04065 | -89.98145 | 330 ft | 4 kts | 315° |
| 2026-05-04 05:01 | 35.04090 | -89.98150 | 331 ft | 5 kts | 19° |
| 2026-05-04 05:01 | 35.04107 | -89.98128 | 329 ft | 4 kts | 43° |
| 2026-05-04 05:01 | 35.04121 | -89.98111 | 328 ft | 1 kts | 46° |
| 2026-05-04 05:02 | 35.04121 | -89.98110 | 328 ft | 0 kts | 46° |
| 2026-05-04 05:02 | 35.04122 | -89.98109 | 330 ft | 0 kts | 47° |